createdAt,value
2022-11-30T00:01:14.832Z,8.74
2022-11-30T00:03:41.709Z,8.74
2022-11-30T00:06:11.022Z,8.74
2022-11-30T00:08:37.534Z,8.75
2022-11-30T00:11:25.527Z,8.75
2022-11-30T00:13:52.074Z,8.74
2022-11-30T00:16:18.514Z,8.75
2022-11-30T00:18:45.103Z,8.77
2022-11-30T00:21:13.574Z,8.78
2022-11-30T00:23:42.265Z,8.77
2022-11-30T00:26:12.292Z,8.79
2022-11-30T00:28:39.847Z,8.79
2022-11-30T00:31:10.205Z,8.81
2022-11-30T00:33:37.642Z,8.79
2022-11-30T00:36:18.210Z,8.76
2022-11-30T00:38:45.458Z,8.71
2022-11-30T00:41:12.292Z,8.68
2022-11-30T00:43:38.941Z,8.65
2022-11-30T00:46:06.111Z,8.65
2022-11-30T00:48:32.716Z,8.65
2022-11-30T00:50:59.152Z,8.62
2022-11-30T00:53:25.607Z,8.60
2022-11-30T00:55:52.136Z,8.60
2022-11-30T00:58:19.698Z,8.60
2022-11-30T01:00:46.528Z,8.59
2022-11-30T01:03:13.346Z,8.57
2022-11-30T01:05:40.019Z,8.57
2022-11-30T01:08:08.749Z,8.57
2022-11-30T01:10:38.013Z,8.55
2022-11-30T01:13:04.972Z,8.52
2022-11-30T01:15:32.175Z,8.51
2022-11-30T01:18:01.431Z,8.51
2022-11-30T01:20:27.840Z,8.48
2022-11-30T01:22:55.497Z,8.47
2022-11-30T01:25:22.132Z,8.45
2022-11-30T01:27:49.614Z,8.46
2022-11-30T01:30:16.355Z,8.46
2022-11-30T01:32:42.824Z,8.46
2022-11-30T01:35:10.227Z,8.47
2022-11-30T01:37:36.881Z,8.46
2022-11-30T01:40:04.253Z,8.44
2022-11-30T01:42:32.873Z,8.44
2022-11-30T01:45:01.512Z,8.44
2022-11-30T01:47:43.186Z,8.42
2022-11-30T01:50:14.348Z,8.41
2022-11-30T01:52:48.640Z,8.41
2022-11-30T01:55:42.561Z,8.40
2022-11-30T01:58:30.565Z,8.40
2022-11-30T02:00:56.953Z,8.41
2022-11-30T02:03:35.342Z,8.43
2022-11-30T02:06:01.932Z,8.43
2022-11-30T02:08:29.944Z,8.42
2022-11-30T02:11:02.809Z,8.44
2022-11-30T02:13:32.335Z,8.45
2022-11-30T02:16:17.346Z,8.43
2022-11-30T02:19:02.255Z,8.42
2022-11-30T02:21:46.030Z,8.40
2022-11-30T02:24:24.606Z,8.41
2022-11-30T02:27:28.660Z,8.40
2022-11-30T02:30:09.628Z,8.39
2022-11-30T02:32:48.150Z,8.41
2022-11-30T02:35:19.067Z,8.44
2022-11-30T02:37:46.201Z,8.44
2022-11-30T02:40:17.827Z,8.45
2022-11-30T02:42:44.478Z,8.44
2022-11-30T02:45:12.000Z,8.45
2022-11-30T02:47:50.772Z,8.45
2022-11-30T02:50:31.327Z,8.45
2022-11-30T02:52:57.927Z,8.45
2022-11-30T02:55:24.871Z,8.47
2022-11-30T02:57:51.227Z,8.49
2022-11-30T03:00:18.151Z,8.49
2022-11-30T03:02:44.720Z,8.50
2022-11-30T03:05:11.227Z,8.53
2022-11-30T03:07:38.202Z,8.52
2022-11-30T03:10:06.115Z,8.52
2022-11-30T03:12:32.713Z,8.51
2022-11-30T03:14:59.129Z,8.52
2022-11-30T03:17:25.727Z,8.53
2022-11-30T03:19:52.091Z,8.53
2022-11-30T03:22:18.534Z,8.52
2022-11-30T03:24:45.050Z,8.53
2022-11-30T03:27:12.302Z,8.54
2022-11-30T03:29:39.299Z,8.52
2022-11-30T03:32:06.115Z,8.51
2022-11-30T03:34:32.652Z,8.50
2022-11-30T03:36:59.399Z,8.50
2022-11-30T03:39:25.917Z,8.48
2022-11-30T03:41:52.317Z,8.47
2022-11-30T03:44:19.533Z,8.46
2022-11-30T03:46:45.982Z,8.44
2022-11-30T03:49:12.480Z,8.45
2022-11-30T03:51:38.941Z,8.43
2022-11-30T03:54:05.411Z,8.43
2022-11-30T03:56:31.813Z,8.43
2022-11-30T03:58:58.263Z,8.41
2022-11-30T04:01:24.806Z,8.40
2022-11-30T04:03:52.370Z,8.38
2022-11-30T04:06:20.112Z,8.39
2022-11-30T04:08:47.594Z,8.36
2022-11-30T04:11:14.301Z,8.34
2022-11-30T04:13:42.194Z,8.35
2022-11-30T04:16:09.376Z,8.36
2022-11-30T04:18:37.082Z,8.34
2022-11-30T04:21:04.457Z,8.31
2022-11-30T04:23:33.383Z,8.29
2022-11-30T04:26:01.986Z,8.25
2022-11-30T04:28:28.350Z,8.24
2022-11-30T04:30:55.198Z,8.22
2022-11-30T04:33:21.940Z,8.23
2022-11-30T04:35:53.071Z,8.23
2022-11-30T04:38:19.443Z,8.21
2022-11-30T04:40:45.856Z,8.16
2022-11-30T04:43:12.903Z,8.17
2022-11-30T04:45:39.950Z,8.12
2022-11-30T04:48:06.730Z,8.09
2022-11-30T04:50:33.748Z,8.11
2022-11-30T04:53:00.146Z,8.10
2022-11-30T04:55:26.604Z,8.08
2022-11-30T04:57:52.953Z,8.08
2022-11-30T05:00:19.934Z,8.08
2022-11-30T05:02:52.514Z,8.10
2022-11-30T05:05:20.423Z,8.10
2022-11-30T05:07:51.354Z,8.11
2022-11-30T05:10:18.101Z,8.11
2022-11-30T05:12:44.846Z,8.13
2022-11-30T05:15:11.290Z,8.12
2022-11-30T05:17:37.751Z,8.14
2022-11-30T05:20:04.722Z,8.14
2022-11-30T05:22:31.193Z,8.17
2022-11-30T05:24:57.611Z,8.17
2022-11-30T05:27:24.015Z,8.19
2022-11-30T05:29:50.393Z,8.20
2022-11-30T05:32:16.851Z,8.21
2022-11-30T05:34:50.509Z,8.22
2022-11-30T05:37:18.093Z,8.23
2022-11-30T05:39:44.603Z,8.22
2022-11-30T05:42:11.044Z,8.24
2022-11-30T05:44:37.623Z,8.26
2022-11-30T05:47:04.243Z,8.26
2022-11-30T05:49:30.697Z,8.28
2022-11-30T05:51:57.132Z,8.29
2022-11-30T05:54:23.542Z,8.26
2022-11-30T05:56:54.488Z,8.27
2022-11-30T05:59:21.859Z,8.28
2022-11-30T06:01:48.575Z,8.29
2022-11-30T06:04:15.119Z,8.31
2022-11-30T06:06:41.515Z,8.29
2022-11-30T06:09:08.089Z,8.30
2022-11-30T06:11:34.487Z,8.33
2022-11-30T06:14:00.952Z,8.35
2022-11-30T06:16:27.465Z,8.36
2022-11-30T06:18:53.939Z,8.39
2022-11-30T06:21:24.458Z,8.41
2022-11-30T06:23:51.975Z,8.41
2022-11-30T06:26:18.379Z,8.42
2022-11-30T06:28:48.259Z,8.42
2022-11-30T06:31:16.356Z,8.41
2022-11-30T06:33:43.299Z,8.40
2022-11-30T06:36:09.932Z,8.41
2022-11-30T06:38:36.635Z,8.42
2022-11-30T06:41:05.727Z,8.43
2022-11-30T06:43:36.727Z,8.47
2022-11-30T06:46:04.785Z,8.47
2022-11-30T06:48:31.625Z,8.50
2022-11-30T06:50:58.912Z,8.51
2022-11-30T06:53:27.157Z,8.50
2022-11-30T06:55:53.851Z,8.50
2022-11-30T06:58:20.289Z,8.48
2022-11-30T07:00:46.765Z,8.46
2022-11-30T07:03:13.769Z,8.46
2022-11-30T07:05:45.690Z,8.46
2022-11-30T07:08:16.324Z,8.47
2022-11-30T07:10:45.001Z,8.47
2022-11-30T07:13:15.791Z,8.45
2022-11-30T07:15:42.844Z,8.45
2022-11-30T07:18:10.545Z,8.44
2022-11-30T07:20:37.907Z,8.41
2022-11-30T07:23:23.877Z,8.39
2022-11-30T07:26:07.130Z,8.39
2022-11-30T07:28:36.073Z,8.40
2022-11-30T07:31:16.193Z,8.41
2022-11-30T07:33:43.544Z,8.41
2022-11-30T07:36:10.774Z,8.43
2022-11-30T07:38:38.125Z,8.43
2022-11-30T07:41:05.227Z,8.45
2022-11-30T07:43:32.571Z,8.43
2022-11-30T07:46:00.154Z,8.43
2022-11-30T07:48:26.753Z,8.45
2022-11-30T07:50:53.211Z,8.44
2022-11-30T07:53:19.737Z,8.44
2022-11-30T07:55:46.263Z,8.46
2022-11-30T07:58:17.258Z,8.46
2022-11-30T08:00:44.183Z,8.49
2022-11-30T08:03:10.709Z,8.50
2022-11-30T08:05:37.226Z,8.51
2022-11-30T08:08:03.690Z,8.53
2022-11-30T08:10:30.075Z,8.54
2022-11-30T08:12:56.505Z,8.58
2022-11-30T08:15:27.474Z,8.61
2022-11-30T08:18:00.213Z,8.59
2022-11-30T08:20:26.634Z,8.61
2022-11-30T08:22:53.000Z,8.62
2022-11-30T08:25:19.420Z,8.62
2022-11-30T08:27:45.804Z,8.62
2022-11-30T08:30:12.420Z,8.64
2022-11-30T08:32:38.842Z,8.63
2022-11-30T08:35:05.779Z,8.59
2022-11-30T08:37:32.216Z,8.60
2022-11-30T08:39:58.662Z,8.60
2022-11-30T08:42:25.050Z,8.61
2022-11-30T08:44:51.418Z,8.65
2022-11-30T08:47:17.859Z,8.64
2022-11-30T08:49:44.331Z,8.67
2022-11-30T08:52:18.699Z,8.68
2022-11-30T08:54:47.949Z,8.71
2022-11-30T08:57:17.476Z,8.73
2022-11-30T08:59:44.416Z,8.74
2022-11-30T09:02:13.335Z,8.74
2022-11-30T09:04:39.790Z,8.74
2022-11-30T09:07:06.226Z,8.76
2022-11-30T09:09:32.678Z,8.79
2022-11-30T09:11:59.125Z,8.79
2022-11-30T09:14:25.532Z,8.83
2022-11-30T09:16:53.642Z,8.85
2022-11-30T09:19:20.753Z,8.87
2022-11-30T09:21:52.028Z,8.88
2022-11-30T09:24:19.141Z,8.87
2022-11-30T09:26:45.658Z,8.88
2022-11-30T09:29:12.049Z,8.86
2022-11-30T09:31:38.513Z,8.85
2022-11-30T09:34:05.286Z,8.82
2022-11-30T09:36:32.963Z,8.85
2022-11-30T09:38:59.391Z,8.87
2022-11-30T09:41:28.818Z,8.93
2022-11-30T09:44:13.695Z,8.94
2022-11-30T09:46:48.870Z,8.96
2022-11-30T09:49:26.713Z,8.96
2022-11-30T09:51:58.579Z,8.96
2022-11-30T09:54:39.958Z,8.95
2022-11-30T09:57:33.828Z,8.92
2022-11-30T10:00:05.385Z,8.92
2022-11-30T10:02:37.973Z,8.86
2022-11-30T10:05:13.561Z,8.84
2022-11-30T10:08:10.591Z,8.80
2022-11-30T10:10:45.603Z,8.77
2022-11-30T10:13:43.012Z,8.77
2022-11-30T10:16:26.481Z,8.73
2022-11-30T10:19:00.553Z,8.70
2022-11-30T10:21:48.454Z,8.63
2022-11-30T10:24:35.900Z,8.58
2022-11-30T10:27:15.907Z,8.60
2022-11-30T10:29:43.496Z,8.59
2022-11-30T10:32:17.955Z,8.59
2022-11-30T10:34:51.663Z,8.62
2022-11-30T10:37:27.371Z,8.62
2022-11-30T10:40:02.961Z,8.61
2022-11-30T10:42:39.745Z,8.59
2022-11-30T10:45:11.597Z,8.62
2022-11-30T10:47:46.407Z,8.58
2022-11-30T10:50:17.879Z,8.59
2022-11-30T10:52:47.958Z,8.54
2022-11-30T10:55:35.972Z,8.47
2022-11-30T10:58:09.815Z,8.47
2022-11-30T11:00:36.384Z,8.45
2022-11-30T11:03:02.862Z,8.43
2022-11-30T11:05:31.099Z,8.43
2022-11-30T11:08:18.253Z,8.39
2022-11-30T11:10:44.805Z,8.41
2022-11-30T11:13:18.631Z,8.38
2022-11-30T11:16:02.079Z,8.40
2022-11-30T11:18:30.456Z,8.37
2022-11-30T11:21:14.407Z,8.37
2022-11-30T11:23:42.662Z,8.33
2022-11-30T11:26:25.198Z,8.32
2022-11-30T11:28:56.728Z,8.34
2022-11-30T11:31:44.068Z,8.30
2022-11-30T11:34:39.642Z,8.31
2022-11-30T11:37:22.915Z,8.32
2022-11-30T11:40:04.011Z,8.31
2022-11-30T11:42:35.094Z,8.32
2022-11-30T11:45:02.940Z,8.30
2022-11-30T11:47:36.840Z,8.29
2022-11-30T11:50:12.459Z,8.30
2022-11-30T11:52:39.134Z,8.30
2022-11-30T11:55:14.123Z,8.28
2022-11-30T11:58:00.665Z,8.26
2022-11-30T12:00:27.160Z,8.25
2022-11-30T12:03:25.143Z,8.24
2022-11-30T12:05:53.898Z,8.21
2022-11-30T12:08:35.789Z,8.21
2022-11-30T12:11:14.082Z,8.23
2022-11-30T12:13:45.898Z,8.25
2022-11-30T12:16:12.561Z,8.28
2022-11-30T12:18:50.148Z,8.28
2022-11-30T12:21:31.308Z,8.25
2022-11-30T12:24:12.337Z,8.22
2022-11-30T12:26:49.003Z,8.23
2022-11-30T12:29:23.603Z,8.24
2022-11-30T12:32:01.207Z,8.23
2022-11-30T12:34:40.590Z,8.16
2022-11-30T12:37:47.440Z,8.17
2022-11-30T12:40:32.740Z,8.17
2022-11-30T12:43:29.162Z,8.15
2022-11-30T12:46:07.426Z,8.16
2022-11-30T12:49:06.188Z,8.16
2022-11-30T12:52:22.610Z,8.11
2022-11-30T12:54:53.989Z,8.10
2022-11-30T12:57:27.432Z,8.12
2022-11-30T13:00:09.315Z,8.08
2022-11-30T13:03:06.753Z,8.09
2022-11-30T13:05:37.993Z,8.08
2022-11-30T13:08:19.099Z,8.08
2022-11-30T13:10:49.522Z,8.07
2022-11-30T13:13:28.138Z,8.12
2022-11-30T13:15:55.645Z,8.13
2022-11-30T13:18:24.075Z,8.15
2022-11-30T13:20:50.498Z,8.15
2022-11-30T13:23:22.170Z,8.13
2022-11-30T13:26:10.944Z,8.13
2022-11-30T13:28:43.398Z,8.13
2022-11-30T13:31:27.671Z,8.11
2022-11-30T13:33:54.156Z,8.12
2022-11-30T13:36:42.316Z,8.14
2022-11-30T13:39:14.738Z,8.12
2022-11-30T13:41:50.368Z,8.14
2022-11-30T13:44:24.602Z,8.11
2022-11-30T13:46:53.324Z,8.11
2022-11-30T13:49:27.339Z,8.12
2022-11-30T13:52:20.864Z,8.09
2022-11-30T13:54:43.879Z,8.09
2022-11-30T13:57:25.304Z,8.06
2022-11-30T13:59:56.282Z,8.06
2022-11-30T14:02:52.070Z,8.06
2022-11-30T14:05:22.670Z,8.06
2022-11-30T14:07:52.608Z,8.08
2022-11-30T14:10:45.855Z,8.08
2022-11-30T14:13:13.431Z,8.07
2022-11-30T14:15:40.689Z,8.09
2022-11-30T14:18:09.829Z,8.09
2022-11-30T14:20:42.766Z,8.13
2022-11-30T14:23:17.228Z,8.14
2022-11-30T14:25:49.723Z,8.12
2022-11-30T14:28:20.061Z,8.12
2022-11-30T14:30:48.051Z,8.11
2022-11-30T14:33:19.987Z,8.12
2022-11-30T14:35:54.029Z,8.13
2022-11-30T14:38:27.617Z,8.11
2022-11-30T14:40:54.569Z,8.09
2022-11-30T14:43:21.138Z,8.12
2022-11-30T14:46:10.182Z,8.13
2022-11-30T14:48:39.399Z,8.13
2022-11-30T14:51:05.898Z,8.14
2022-11-30T14:54:05.021Z,8.14
2022-11-30T14:56:52.160Z,8.15
2022-11-30T14:59:45.009Z,8.14
2022-11-30T15:02:37.826Z,8.14
2022-11-30T15:05:09.663Z,8.14
2022-11-30T15:07:37.018Z,8.12
2022-11-30T15:10:13.755Z,8.12
2022-11-30T15:12:41.537Z,8.14
2022-11-30T15:15:20.922Z,8.14
2022-11-30T15:18:15.027Z,8.16
2022-11-30T15:21:05.923Z,8.16
2022-11-30T15:23:32.416Z,8.19
2022-11-30T15:26:04.598Z,8.22
2022-11-30T15:28:34.207Z,8.24
2022-11-30T15:31:04.247Z,8.25
2022-11-30T15:33:40.593Z,8.26
2022-11-30T15:36:31.391Z,8.27
2022-11-30T15:38:54.167Z,8.22
2022-11-30T15:41:25.312Z,8.24
2022-11-30T15:43:54.448Z,8.18
2022-11-30T15:46:46.422Z,8.16
2022-11-30T15:49:17.840Z,8.17
2022-11-30T15:51:47.120Z,8.16
2022-11-30T15:54:15.274Z,8.14
2022-11-30T15:56:41.677Z,8.12
2022-11-30T15:59:14.106Z,8.11
2022-11-30T16:02:02.360Z,8.06
2022-11-30T16:04:49.444Z,8.02
2022-11-30T16:07:19.337Z,8.01
2022-11-30T16:09:46.130Z,7.98
2022-11-30T16:12:27.286Z,7.96
2022-11-30T16:14:53.635Z,7.94
2022-11-30T16:17:20.000Z,7.93
2022-11-30T16:19:46.738Z,7.89
2022-11-30T16:22:15.473Z,7.89
2022-11-30T16:24:42.220Z,7.89
2022-11-30T16:27:26.651Z,7.89
2022-11-30T16:29:53.220Z,7.90
2022-11-30T16:32:19.767Z,7.93
2022-11-30T16:34:48.111Z,7.96
2022-11-30T16:37:14.708Z,7.95
2022-11-30T16:39:41.087Z,7.97
2022-11-30T16:42:11.610Z,7.98
2022-11-30T16:44:38.546Z,7.98
2022-11-30T16:47:05.042Z,7.97
2022-11-30T16:49:31.424Z,7.95
2022-11-30T16:51:57.780Z,7.99
2022-11-30T16:54:24.350Z,8.02
2022-11-30T16:56:50.722Z,8.03
2022-11-30T16:59:17.293Z,8.03
2022-11-30T17:01:52.887Z,8.03
2022-11-30T17:04:25.981Z,8.04
2022-11-30T17:06:58.756Z,8.04
2022-11-30T17:09:30.198Z,8.02
2022-11-30T17:11:56.699Z,8.03
2022-11-30T17:14:23.135Z,8.03
2022-11-30T17:16:49.643Z,8.04
2022-11-30T17:19:16.092Z,8.03
2022-11-30T17:21:44.511Z,8.05
2022-11-30T17:24:11.889Z,8.04
2022-11-30T17:26:38.443Z,8.06
2022-11-30T17:29:04.934Z,8.08
2022-11-30T17:31:31.488Z,8.08
2022-11-30T17:33:58.132Z,8.10
2022-11-30T17:36:24.638Z,8.07
2022-11-30T17:38:51.191Z,8.07
2022-11-30T17:41:19.885Z,8.06
2022-11-30T17:43:47.659Z,8.06
2022-11-30T17:46:16.618Z,8.06
2022-11-30T17:48:43.712Z,8.07
2022-11-30T17:51:11.755Z,8.07
2022-11-30T17:53:39.626Z,8.07
2022-11-30T17:56:15.315Z,8.06
2022-11-30T17:58:44.230Z,8.08
2022-11-30T18:01:19.226Z,8.07
2022-11-30T18:03:46.066Z,8.07
2022-11-30T18:06:13.400Z,8.09
2022-11-30T18:08:40.199Z,8.10
2022-11-30T18:11:14.767Z,8.11
2022-11-30T18:13:41.618Z,8.11
2022-11-30T18:16:17.221Z,8.11
2022-11-30T18:18:47.696Z,8.10
2022-11-30T18:21:17.533Z,8.09
2022-11-30T18:23:44.060Z,8.10
2022-11-30T18:26:16.541Z,8.09
2022-11-30T18:28:43.909Z,8.09
2022-11-30T18:31:10.411Z,8.10
2022-11-30T18:33:37.704Z,8.10
2022-11-30T18:36:08.286Z,8.10
2022-11-30T18:38:38.416Z,8.09
2022-11-30T18:41:05.696Z,8.09
2022-11-30T18:43:33.488Z,8.10
2022-11-30T18:46:04.363Z,8.09
2022-11-30T18:48:30.826Z,8.08
2022-11-30T18:50:57.645Z,8.09
2022-11-30T18:53:24.112Z,8.10
2022-11-30T18:55:50.641Z,8.12
2022-11-30T18:58:17.222Z,8.14
2022-11-30T19:00:43.636Z,8.17
2022-11-30T19:03:10.115Z,8.20
2022-11-30T19:05:38.226Z,8.22
2022-11-30T19:08:07.412Z,8.25
2022-11-30T19:10:35.856Z,8.27
2022-11-30T19:13:04.054Z,8.30
2022-11-30T19:15:39.824Z,8.30
2022-11-30T19:18:06.418Z,8.31
2022-11-30T19:20:40.786Z,8.30
2022-11-30T19:23:07.322Z,8.30
2022-11-30T19:25:33.764Z,8.26
2022-11-30T19:28:00.179Z,8.26
2022-11-30T19:30:26.671Z,8.25
2022-11-30T19:32:53.671Z,8.24
2022-11-30T19:35:21.007Z,8.23
2022-11-30T19:37:47.355Z,8.23
2022-11-30T19:40:13.786Z,8.22
2022-11-30T19:42:40.203Z,8.21
2022-11-30T19:45:07.240Z,8.21
2022-11-30T19:47:33.603Z,8.19
2022-11-30T19:50:00.029Z,8.20
2022-11-30T19:52:26.452Z,8.20
2022-11-30T19:54:52.826Z,8.19
2022-11-30T19:57:19.218Z,8.19
2022-11-30T19:59:46.260Z,8.19
2022-11-30T20:02:12.744Z,8.19
2022-11-30T20:04:39.510Z,8.16
2022-11-30T20:07:05.915Z,8.14
2022-11-30T20:09:32.541Z,8.13
2022-11-30T20:11:58.983Z,8.11
2022-11-30T20:14:25.354Z,8.12
2022-11-30T20:16:52.955Z,8.10
2022-11-30T20:19:19.407Z,8.10
2022-11-30T20:21:46.054Z,8.09
2022-11-30T20:24:12.460Z,8.08
2022-11-30T20:26:41.479Z,8.09
2022-11-30T20:29:12.919Z,8.10
2022-11-30T20:31:39.559Z,8.12
2022-11-30T20:34:08.035Z,8.15
2022-11-30T20:36:35.358Z,8.18
2022-11-30T20:39:02.864Z,8.19
2022-11-30T20:41:29.327Z,8.21
2022-11-30T20:43:56.133Z,8.21
2022-11-30T20:46:28.586Z,8.21
2022-11-30T20:48:55.992Z,8.22
2022-11-30T20:51:32.817Z,8.22
2022-11-30T20:54:05.616Z,8.18
2022-11-30T20:56:37.028Z,8.17
2022-11-30T20:59:06.189Z,8.15
2022-11-30T21:01:33.300Z,8.13
2022-11-30T21:04:00.722Z,8.13
2022-11-30T21:06:29.310Z,8.12
2022-11-30T21:08:55.829Z,8.11
2022-11-30T21:11:22.710Z,8.07
2022-11-30T21:13:50.788Z,8.08
2022-11-30T21:16:25.641Z,8.05
2022-11-30T21:18:54.360Z,8.05
2022-11-30T21:21:24.285Z,8.03
2022-11-30T21:23:50.954Z,8.01
2022-11-30T21:26:23.404Z,8.00
2022-11-30T21:28:53.611Z,7.98
2022-11-30T21:31:21.513Z,7.97
2022-11-30T21:33:52.869Z,7.97
2022-11-30T21:36:21.083Z,7.96
2022-11-30T21:38:47.547Z,7.96
2022-11-30T21:41:14.792Z,7.98
2022-11-30T21:43:42.042Z,7.98
2022-11-30T21:46:15.297Z,7.99
2022-11-30T21:48:44.184Z,8.00
2022-11-30T21:51:13.523Z,8.00
2022-11-30T21:53:42.711Z,8.01
2022-11-30T21:56:12.686Z,7.99
2022-11-30T21:58:41.077Z,8.01
2022-11-30T22:01:12.059Z,8.00
2022-11-30T22:03:38.709Z,8.02
2022-11-30T22:06:07.875Z,8.00
2022-11-30T22:08:34.812Z,8.00
2022-11-30T22:11:05.876Z,8.01
2022-11-30T22:13:32.461Z,8.00
2022-11-30T22:16:07.837Z,8.01
2022-11-30T22:18:34.906Z,8.01
2022-11-30T22:21:23.684Z,8.00
2022-11-30T22:24:02.106Z,7.99
2022-11-30T22:26:34.586Z,8.01
2022-11-30T22:29:15.946Z,8.01
2022-11-30T22:31:44.707Z,7.99
2022-11-30T22:34:11.682Z,7.97
2022-11-30T22:36:40.168Z,7.98
2022-11-30T22:39:12.407Z,7.97
2022-11-30T22:41:40.324Z,7.96
2022-11-30T22:44:07.121Z,7.95
2022-11-30T22:46:35.411Z,7.97
2022-11-30T22:49:03.711Z,7.97
2022-11-30T22:51:32.371Z,7.96
2022-11-30T22:53:59.490Z,7.97
2022-11-30T22:56:29.010Z,7.95
2022-11-30T22:58:58.891Z,7.96
2022-11-30T23:01:34.187Z,7.94
2022-11-30T23:04:12.204Z,7.93
2022-11-30T23:06:40.599Z,7.92
2022-11-30T23:09:12.123Z,7.90
2022-11-30T23:11:38.698Z,7.93
2022-11-30T23:14:07.826Z,7.94
2022-11-30T23:16:35.619Z,7.92
2022-11-30T23:19:02.115Z,7.95
2022-11-30T23:21:31.457Z,7.96
2022-11-30T23:24:02.615Z,7.95
2022-11-30T23:26:39.068Z,7.95
2022-11-30T23:29:08.343Z,7.93
2022-11-30T23:31:38.426Z,7.94
2022-11-30T23:34:10.611Z,7.93
2022-11-30T23:36:37.451Z,7.94
2022-11-30T23:39:07.792Z,7.93
2022-11-30T23:41:34.196Z,7.94
2022-11-30T23:44:00.836Z,7.94
2022-11-30T23:46:27.641Z,7.92
2022-11-30T23:48:55.633Z,7.90
2022-11-30T23:51:22.863Z,7.89
2022-11-30T23:53:49.241Z,7.88
2022-11-30T23:56:17.637Z,7.89
2022-11-30T23:58:44.323Z,7.90
